sensor_id;sensor_type;location;lat;lon;timestamp;P1;durP1;ratioP1;P2;durP2;ratioP2
21202;SDS011;10759;51.982;9.232;2022-12-29T00:01:40;4.32;;;3.10;;
21202;SDS011;10759;51.982;9.232;2022-12-29T00:04:30;3.63;;;3.30;;
21202;SDS011;10759;51.982;9.232;2022-12-29T00:07:14;4.90;;;3.33;;
21202;SDS011;10759;51.982;9.232;2022-12-29T00:09:49;3.00;;;2.80;;
21202;SDS011;10759;51.982;9.232;2022-12-29T00:12:30;4.65;;;4.32;;
21202;SDS011;10759;51.982;9.232;2022-12-29T00:15:21;3.70;;;3.30;;
21202;SDS011;10759;51.982;9.232;2022-12-29T00:18:16;3.50;;;2.50;;
21202;SDS011;10759;51.982;9.232;2022-12-29T00:20:51;3.15;;;2.50;;
21202;SDS011;10759;51.982;9.232;2022-12-29T00:23:51;4.88;;;2.90;;
21202;SDS011;10759;51.982;9.232;2022-12-29T00:26:39;2.03;;;1.92;;
21202;SDS011;10759;51.982;9.232;2022-12-29T00:29:42;3.58;;;2.80;;
21202;SDS011;10759;51.982;9.232;2022-12-29T00:32:30;2.95;;;2.10;;
21202;SDS011;10759;51.982;9.232;2022-12-29T00:35:27;2.13;;;2.03;;
21202;SDS011;10759;51.982;9.232;2022-12-29T00:38:15;2.40;;;2.13;;
21202;SDS011;10759;51.982;9.232;2022-12-29T00:41:08;2.10;;;1.90;;
21202;SDS011;10759;51.982;9.232;2022-12-29T00:44:01;2.22;;;2.08;;
21202;SDS011;10759;51.982;9.232;2022-12-29T00:46:47;2.20;;;2.10;;
21202;SDS011;10759;51.982;9.232;2022-12-29T00:49:38;2.25;;;1.98;;
21202;SDS011;10759;51.982;9.232;2022-12-29T00:52:32;2.13;;;1.90;;
21202;SDS011;10759;51.982;9.232;2022-12-29T00:55:07;3.05;;;2.03;;
21202;SDS011;10759;51.982;9.232;2022-12-29T00:57:41;2.75;;;2.47;;
21202;SDS011;10759;51.982;9.232;2022-12-29T01:00:25;2.40;;;2.20;;
21202;SDS011;10759;51.982;9.232;2022-12-29T01:03:08;2.95;;;2.67;;
21202;SDS011;10759;51.982;9.232;2022-12-29T01:06:10;2.63;;;2.42;;
21202;SDS011;10759;51.982;9.232;2022-12-29T01:08:48;2.90;;;2.65;;
21202;SDS011;10759;51.982;9.232;2022-12-29T01:11:35;2.38;;;2.17;;
21202;SDS011;10759;51.982;9.232;2022-12-29T01:14:34;3.08;;;2.78;;
21202;SDS011;10759;51.982;9.232;2022-12-29T01:17:16;4.13;;;2.60;;
21202;SDS011;10759;51.982;9.232;2022-12-29T01:19:57;2.70;;;2.50;;
21202;SDS011;10759;51.982;9.232;2022-12-29T01:22:40;2.47;;;2.28;;
21202;SDS011;10759;51.982;9.232;2022-12-29T01:25:25;2.78;;;2.58;;
21202;SDS011;10759;51.982;9.232;2022-12-29T01:27:59;2.50;;;2.30;;
21202;SDS011;10759;51.982;9.232;2022-12-29T01:30:37;3.00;;;2.80;;
21202;SDS011;10759;51.982;9.232;2022-12-29T01:33:15;2.88;;;2.67;;
21202;SDS011;10759;51.982;9.232;2022-12-29T01:35:48;3.17;;;2.97;;
21202;SDS011;10759;51.982;9.232;2022-12-29T01:38:30;2.72;;;2.47;;
21202;SDS011;10759;51.982;9.232;2022-12-29T01:41:30;2.53;;;2.30;;
21202;SDS011;10759;51.982;9.232;2022-12-29T01:47:32;3.05;;;2.70;;
21202;SDS011;10759;51.982;9.232;2022-12-29T01:50:26;2.75;;;2.35;;
21202;SDS011;10759;51.982;9.232;2022-12-29T01:53:00;2.83;;;2.63;;
21202;SDS011;10759;51.982;9.232;2022-12-29T01:55:50;3.25;;;2.50;;
21202;SDS011;10759;51.982;9.232;2022-12-29T02:01:39;4.25;;;2.88;;
21202;SDS011;10759;51.982;9.232;2022-12-29T02:04:25;3.45;;;2.10;;
21202;SDS011;10759;51.982;9.232;2022-12-29T02:07:03;2.50;;;2.30;;
21202;SDS011;10759;51.982;9.232;2022-12-29T02:09:37;3.10;;;2.85;;
21202;SDS011;10759;51.982;9.232;2022-12-29T02:12:17;3.95;;;2.75;;
21202;SDS011;10759;51.982;9.232;2022-12-29T02:14:57;5.03;;;2.53;;
21202;SDS011;10759;51.982;9.232;2022-12-29T02:21:07;4.30;;;2.90;;
21202;SDS011;10759;51.982;9.232;2022-12-29T02:27:42;2.83;;;2.25;;
21202;SDS011;10759;51.982;9.232;2022-12-29T02:33:28;2.67;;;2.35;;
21202;SDS011;10759;51.982;9.232;2022-12-29T02:36:50;2.72;;;2.33;;
21202;SDS011;10759;51.982;9.232;2022-12-29T02:39:48;2.45;;;2.00;;
21202;SDS011;10759;51.982;9.232;2022-12-29T02:42:36;2.22;;;2.13;;
21202;SDS011;10759;51.982;9.232;2022-12-29T02:45:26;2.85;;;2.60;;
21202;SDS011;10759;51.982;9.232;2022-12-29T02:48:13;2.75;;;2.50;;
21202;SDS011;10759;51.982;9.232;2022-12-29T02:51:01;2.60;;;2.33;;
21202;SDS011;10759;51.982;9.232;2022-12-29T02:54:01;2.50;;;2.30;;
21202;SDS011;10759;51.982;9.232;2022-12-29T02:57:03;3.42;;;2.60;;
21202;SDS011;10759;51.982;9.232;2022-12-29T02:59:33;2.60;;;2.40;;
21202;SDS011;10759;51.982;9.232;2022-12-29T03:05:25;2.78;;;2.50;;
21202;SDS011;10759;51.982;9.232;2022-12-29T03:08:18;2.58;;;2.38;;
21202;SDS011;10759;51.982;9.232;2022-12-29T03:11:17;3.85;;;2.10;;
21202;SDS011;10759;51.982;9.232;2022-12-29T03:14:29;2.50;;;2.30;;
21202;SDS011;10759;51.982;9.232;2022-12-29T03:17:27;2.75;;;2.25;;
21202;SDS011;10759;51.982;9.232;2022-12-29T03:20:31;3.63;;;2.20;;
21202;SDS011;10759;51.982;9.232;2022-12-29T03:23:20;1.88;;;1.77;;
21202;SDS011;10759;51.982;9.232;2022-12-29T03:26:01;2.10;;;2.00;;
21202;SDS011;10759;51.982;9.232;2022-12-29T03:28:40;2.03;;;1.60;;
21202;SDS011;10759;51.982;9.232;2022-12-29T03:31:29;1.92;;;1.80;;
21202;SDS011;10759;51.982;9.232;2022-12-29T03:34:12;2.85;;;2.05;;
21202;SDS011;10759;51.982;9.232;2022-12-29T03:36:56;2.08;;;1.90;;
21202;SDS011;10759;51.982;9.232;2022-12-29T03:39:46;2.50;;;2.28;;
21202;SDS011;10759;51.982;9.232;2022-12-29T03:42:35;2.00;;;1.80;;
21202;SDS011;10759;51.982;9.232;2022-12-29T03:45:09;2.20;;;2.00;;
21202;SDS011;10759;51.982;9.232;2022-12-29T03:47:57;1.88;;;1.77;;
21202;SDS011;10759;51.982;9.232;2022-12-29T03:50:40;2.35;;;2.15;;
21202;SDS011;10759;51.982;9.232;2022-12-29T03:53:38;1.70;;;1.60;;
21202;SDS011;10759;51.982;9.232;2022-12-29T03:56:10;4.03;;;2.00;;
21202;SDS011;10759;51.982;9.232;2022-12-29T03:58:52;3.60;;;1.85;;
21202;SDS011;10759;51.982;9.232;2022-12-29T04:01:44;2.55;;;1.67;;
21202;SDS011;10759;51.982;9.232;2022-12-29T04:04:18;3.25;;;1.73;;
21202;SDS011;10759;51.982;9.232;2022-12-29T04:06:59;1.70;;;1.60;;
21202;SDS011;10759;51.982;9.232;2022-12-29T04:09:37;2.38;;;1.60;;
21202;SDS011;10759;51.982;9.232;2022-12-29T04:12:38;1.95;;;1.75;;
21202;SDS011;10759;51.982;9.232;2022-12-29T04:15:14;1.65;;;1.55;;
21202;SDS011;10759;51.982;9.232;2022-12-29T04:17:52;1.43;;;1.33;;
21202;SDS011;10759;51.982;9.232;2022-12-29T04:20:23;2.00;;;1.80;;
21202;SDS011;10759;51.982;9.232;2022-12-29T04:23:18;1.55;;;1.45;;
21202;SDS011;10759;51.982;9.232;2022-12-29T04:26:21;1.23;;;1.20;;
21202;SDS011;10759;51.982;9.232;2022-12-29T04:29:20;1.33;;;1.25;;
21202;SDS011;10759;51.982;9.232;2022-12-29T04:32:21;2.13;;;1.35;;
21202;SDS011;10759;51.982;9.232;2022-12-29T04:35:12;1.92;;;1.40;;
21202;SDS011;10759;51.982;9.232;2022-12-29T04:37:49;1.73;;;1.33;;
21202;SDS011;10759;51.982;9.232;2022-12-29T04:43:47;1.23;;;1.15;;
21202;SDS011;10759;51.982;9.232;2022-12-29T04:46:49;0.93;;;0.93;;
21202;SDS011;10759;51.982;9.232;2022-12-29T04:49:55;1.05;;;1.05;;
21202;SDS011;10759;51.982;9.232;2022-12-29T04:52:42;1.35;;;1.10;;
21202;SDS011;10759;51.982;9.232;2022-12-29T04:55:37;1.25;;;0.80;;
21202;SDS011;10759;51.982;9.232;2022-12-29T04:58:14;0.98;;;0.98;;
21202;SDS011;10759;51.982;9.232;2022-12-29T05:04:34;1.20;;;1.10;;
21202;SDS011;10759;51.982;9.232;2022-12-29T05:07:02;2.10;;;2.00;;
21202;SDS011;10759;51.982;9.232;2022-12-29T05:09:30;1.48;;;1.38;;
21202;SDS011;10759;51.982;9.232;2022-12-29T05:11:59;2.42;;;2.22;;
21202;SDS011;10759;51.982;9.232;2022-12-29T05:14:28;2.47;;;2.00;;
21202;SDS011;10759;51.982;9.232;2022-12-29T05:16:58;1.23;;;1.23;;
21202;SDS011;10759;51.982;9.232;2022-12-29T05:19:26;1.33;;;1.23;;
21202;SDS011;10759;51.982;9.232;2022-12-29T05:21:56;1.50;;;1.40;;
21202;SDS011;10759;51.982;9.232;2022-12-29T05:24:26;1.13;;;1.13;;
21202;SDS011;10759;51.982;9.232;2022-12-29T05:26:55;1.77;;;0.93;;
21202;SDS011;10759;51.982;9.232;2022-12-29T05:29:42;1.40;;;1.30;;
21202;SDS011;10759;51.982;9.232;2022-12-29T05:32:13;1.08;;;0.98;;
21202;SDS011;10759;51.982;9.232;2022-12-29T05:34:42;1.40;;;1.30;;
21202;SDS011;10759;51.982;9.232;2022-12-29T05:37:14;1.10;;;1.10;;
21202;SDS011;10759;51.982;9.232;2022-12-29T05:39:43;1.27;;;1.17;;
21202;SDS011;10759;51.982;9.232;2022-12-29T05:42:12;1.25;;;1.20;;
21202;SDS011;10759;51.982;9.232;2022-12-29T05:44:49;2.05;;;1.70;;
21202;SDS011;10759;51.982;9.232;2022-12-29T05:47:34;1.63;;;1.20;;
21202;SDS011;10759;51.982;9.232;2022-12-29T05:50:22;1.13;;;1.00;;
21202;SDS011;10759;51.982;9.232;2022-12-29T05:53:21;1.52;;;1.05;;
21202;SDS011;10759;51.982;9.232;2022-12-29T05:55:49;1.05;;;0.93;;
21202;SDS011;10759;51.982;9.232;2022-12-29T05:58:19;1.20;;;1.10;;
21202;SDS011;10759;51.982;9.232;2022-12-29T06:00:51;1.30;;;1.20;;
21202;SDS011;10759;51.982;9.232;2022-12-29T06:03:23;0.80;;;0.80;;
21202;SDS011;10759;51.982;9.232;2022-12-29T06:05:52;1.42;;;1.33;;
21202;SDS011;10759;51.982;9.232;2022-12-29T06:08:22;2.22;;;2.03;;
21202;SDS011;10759;51.982;9.232;2022-12-29T06:10:50;1.37;;;1.00;;
21202;SDS011;10759;51.982;9.232;2022-12-29T06:13:18;0.82;;;0.82;;
21202;SDS011;10759;51.982;9.232;2022-12-29T06:15:48;0.98;;;0.98;;
21202;SDS011;10759;51.982;9.232;2022-12-29T06:18:17;0.90;;;0.90;;
21202;SDS011;10759;51.982;9.232;2022-12-29T06:20:46;1.00;;;0.85;;
21202;SDS011;10759;51.982;9.232;2022-12-29T06:23:16;0.90;;;0.90;;
21202;SDS011;10759;51.982;9.232;2022-12-29T06:25:47;1.13;;;1.02;;
21202;SDS011;10759;51.982;9.232;2022-12-29T06:28:15;1.08;;;1.08;;
21202;SDS011;10759;51.982;9.232;2022-12-29T06:30:44;1.00;;;1.00;;
21202;SDS011;10759;51.982;9.232;2022-12-29T06:33:14;1.13;;;0.90;;
21202;SDS011;10759;51.982;9.232;2022-12-29T06:35:43;1.20;;;0.85;;
21202;SDS011;10759;51.982;9.232;2022-12-29T06:40:41;1.45;;;1.08;;
21202;SDS011;10759;51.982;9.232;2022-12-29T06:43:41;1.20;;;1.10;;
21202;SDS011;10759;51.982;9.232;2022-12-29T06:46:23;1.10;;;1.00;;
21202;SDS011;10759;51.982;9.232;2022-12-29T06:48:54;0.80;;;0.80;;
21202;SDS011;10759;51.982;9.232;2022-12-29T06:51:22;0.93;;;0.93;;
21202;SDS011;10759;51.982;9.232;2022-12-29T06:53:50;1.02;;;0.73;;
21202;SDS011;10759;51.982;9.232;2022-12-29T06:56:18;0.95;;;0.70;;
21202;SDS011;10759;51.982;9.232;2022-12-29T06:58:47;1.40;;;0.90;;
21202;SDS011;10759;51.982;9.232;2022-12-29T07:01:15;0.93;;;0.80;;
21202;SDS011;10759;51.982;9.232;2022-12-29T07:03:46;0.75;;;0.75;;
21202;SDS011;10759;51.982;9.232;2022-12-29T07:06:15;1.00;;;0.80;;
21202;SDS011;10759;51.982;9.232;2022-12-29T07:08:43;1.02;;;0.77;;
21202;SDS011;10759;51.982;9.232;2022-12-29T07:11:12;1.38;;;1.08;;
21202;SDS011;10759;51.982;9.232;2022-12-29T07:13:43;1.33;;;0.77;;
21202;SDS011;10759;51.982;9.232;2022-12-29T07:16:12;1.25;;;1.10;;
21202;SDS011;10759;51.982;9.232;2022-12-29T07:18:43;0.70;;;0.70;;
21202;SDS011;10759;51.982;9.232;2022-12-29T07:21:11;1.20;;;0.73;;
21202;SDS011;10759;51.982;9.232;2022-12-29T07:23:45;0.98;;;0.75;;
21202;SDS011;10759;51.982;9.232;2022-12-29T07:26:13;1.42;;;0.80;;
21202;SDS011;10759;51.982;9.232;2022-12-29T07:28:44;0.70;;;0.70;;
21202;SDS011;10759;51.982;9.232;2022-12-29T07:31:14;0.77;;;0.50;;
21202;SDS011;10759;51.982;9.232;2022-12-29T07:33:43;0.98;;;0.80;;
21202;SDS011;10759;51.982;9.232;2022-12-29T07:36:11;0.73;;;0.70;;
21202;SDS011;10759;51.982;9.232;2022-12-29T07:38:40;0.95;;;0.80;;
21202;SDS011;10759;51.982;9.232;2022-12-29T07:41:08;1.05;;;0.95;;
21202;SDS011;10759;51.982;9.232;2022-12-29T07:43:36;0.75;;;0.75;;
21202;SDS011;10759;51.982;9.232;2022-12-29T07:46:44;1.25;;;0.75;;
21202;SDS011;10759;51.982;9.232;2022-12-29T07:49:22;3.50;;;0.70;;
21202;SDS011;10759;51.982;9.232;2022-12-29T07:51:50;1.50;;;0.80;;
21202;SDS011;10759;51.982;9.232;2022-12-29T07:54:18;1.15;;;0.68;;
21202;SDS011;10759;51.982;9.232;2022-12-29T07:56:49;2.17;;;0.80;;
21202;SDS011;10759;51.982;9.232;2022-12-29T07:59:17;0.60;;;0.60;;
21202;SDS011;10759;51.982;9.232;2022-12-29T08:01:47;1.67;;;0.95;;
21202;SDS011;10759;51.982;9.232;2022-12-29T08:04:17;0.60;;;0.60;;
21202;SDS011;10759;51.982;9.232;2022-12-29T08:06:45;3.22;;;1.00;;
21202;SDS011;10759;51.982;9.232;2022-12-29T08:09:13;1.75;;;0.80;;
21202;SDS011;10759;51.982;9.232;2022-12-29T08:11:48;0.82;;;0.65;;
21202;SDS011;10759;51.982;9.232;2022-12-29T08:14:16;0.88;;;0.63;;
21202;SDS011;10759;51.982;9.232;2022-12-29T08:16:44;0.47;;;0.40;;
21202;SDS011;10759;51.982;9.232;2022-12-29T08:19:14;0.77;;;0.70;;
21202;SDS011;10759;51.982;9.232;2022-12-29T08:21:42;0.60;;;0.60;;
21202;SDS011;10759;51.982;9.232;2022-12-29T08:24:12;2.17;;;1.00;;
21202;SDS011;10759;51.982;9.232;2022-12-29T08:26:39;1.13;;;0.70;;
21202;SDS011;10759;51.982;9.232;2022-12-29T08:29:07;0.55;;;0.52;;
21202;SDS011;10759;51.982;9.232;2022-12-29T08:31:35;0.85;;;0.75;;
21202;SDS011;10759;51.982;9.232;2022-12-29T08:34:05;1.10;;;1.00;;
21202;SDS011;10759;51.982;9.232;2022-12-29T08:36:37;1.25;;;0.80;;
21202;SDS011;10759;51.982;9.232;2022-12-29T08:39:05;1.47;;;0.90;;
21202;SDS011;10759;51.982;9.232;2022-12-29T08:41:33;1.92;;;0.90;;
21202;SDS011;10759;51.982;9.232;2022-12-29T08:44:01;1.50;;;0.75;;
21202;SDS011;10759;51.982;9.232;2022-12-29T08:46:29;2.08;;;0.90;;
21202;SDS011;10759;51.982;9.232;2022-12-29T08:48:57;3.22;;;1.60;;
21202;SDS011;10759;51.982;9.232;2022-12-29T08:51:25;0.85;;;0.77;;
21202;SDS011;10759;51.982;9.232;2022-12-29T08:53:56;1.33;;;0.82;;
21202;SDS011;10759;51.982;9.232;2022-12-29T08:56:24;1.92;;;1.15;;
21202;SDS011;10759;51.982;9.232;2022-12-29T08:58:56;0.98;;;0.60;;
21202;SDS011;10759;51.982;9.232;2022-12-29T09:01:28;1.30;;;0.90;;
21202;SDS011;10759;51.982;9.232;2022-12-29T09:03:56;0.93;;;0.63;;
21202;SDS011;10759;51.982;9.232;2022-12-29T09:06:43;0.73;;;0.73;;
21202;SDS011;10759;51.982;9.232;2022-12-29T09:09:13;1.20;;;0.90;;
21202;SDS011;10759;51.982;9.232;2022-12-29T09:11:41;2.33;;;1.10;;
21202;SDS011;10759;51.982;9.232;2022-12-29T09:14:09;1.98;;;0.80;;
21202;SDS011;10759;51.982;9.232;2022-12-29T09:16:38;1.33;;;0.98;;
21202;SDS011;10759;51.982;9.232;2022-12-29T09:19:20;1.70;;;0.90;;
21202;SDS011;10759;51.982;9.232;2022-12-29T09:21:48;3.33;;;1.20;;
21202;SDS011;10759;51.982;9.232;2022-12-29T09:24:18;1.98;;;1.20;;
21202;SDS011;10759;51.982;9.232;2022-12-29T09:26:46;0.80;;;0.80;;
21202;SDS011;10759;51.982;9.232;2022-12-29T09:29:14;1.10;;;0.80;;
21202;SDS011;10759;51.982;9.232;2022-12-29T09:31:42;1.60;;;0.93;;
21202;SDS011;10759;51.982;9.232;2022-12-29T09:34:10;0.65;;;0.60;;
21202;SDS011;10759;51.982;9.232;2022-12-29T09:36:38;1.15;;;0.82;;
21202;SDS011;10759;51.982;9.232;2022-12-29T09:39:06;1.33;;;0.73;;
21202;SDS011;10759;51.982;9.232;2022-12-29T09:41:36;1.10;;;0.57;;
21202;SDS011;10759;51.982;9.232;2022-12-29T09:44:12;0.88;;;0.80;;
21202;SDS011;10759;51.982;9.232;2022-12-29T09:46:47;3.58;;;1.00;;
21202;SDS011;10759;51.982;9.232;2022-12-29T09:49:21;2.20;;;0.75;;
21202;SDS011;10759;51.982;9.232;2022-12-29T09:51:56;2.63;;;0.85;;
21202;SDS011;10759;51.982;9.232;2022-12-29T09:54:36;1.83;;;0.85;;
21202;SDS011;10759;51.982;9.232;2022-12-29T09:57:14;1.60;;;0.75;;
21202;SDS011;10759;51.982;9.232;2022-12-29T09:59:45;1.55;;;0.82;;
21202;SDS011;10759;51.982;9.232;2022-12-29T10:02:20;3.47;;;1.20;;
21202;SDS011;10759;51.982;9.232;2022-12-29T10:04:58;1.92;;;1.00;;
21202;SDS011;10759;51.982;9.232;2022-12-29T10:07:30;8.77;;;1.73;;
21202;SDS011;10759;51.982;9.232;2022-12-29T10:10:12;8.88;;;1.58;;
21202;SDS011;10759;51.982;9.232;2022-12-29T10:12:55;1.58;;;0.88;;
21202;SDS011;10759;51.982;9.232;2022-12-29T10:15:33;1.75;;;0.80;;
21202;SDS011;10759;51.982;9.232;2022-12-29T10:18:18;2.00;;;0.88;;
21202;SDS011;10759;51.982;9.232;2022-12-29T10:20:58;4.50;;;1.05;;
21202;SDS011;10759;51.982;9.232;2022-12-29T10:23:33;2.13;;;0.95;;
21202;SDS011;10759;51.982;9.232;2022-12-29T10:26:07;3.38;;;0.98;;
21202;SDS011;10759;51.982;9.232;2022-12-29T10:28:43;1.95;;;0.70;;
21202;SDS011;10759;51.982;9.232;2022-12-29T10:31:16;2.72;;;0.95;;
21202;SDS011;10759;51.982;9.232;2022-12-29T10:33:48;4.47;;;1.20;;
21202;SDS011;10759;51.982;9.232;2022-12-29T10:38:52;1.10;;;0.90;;
21202;SDS011;10759;51.982;9.232;2022-12-29T10:41:32;2.28;;;1.55;;
21202;SDS011;10759;51.982;9.232;2022-12-29T10:44:10;4.32;;;1.25;;
21202;SDS011;10759;51.982;9.232;2022-12-29T10:46:42;3.40;;;1.13;;
21202;SDS011;10759;51.982;9.232;2022-12-29T10:49:16;4.47;;;1.13;;
21202;SDS011;10759;51.982;9.232;2022-12-29T10:51:48;5.30;;;1.27;;
21202;SDS011;10759;51.982;9.232;2022-12-29T10:54:20;3.05;;;1.08;;
21202;SDS011;10759;51.982;9.232;2022-12-29T10:56:52;2.58;;;0.80;;
21202;SDS011;10759;51.982;9.232;2022-12-29T10:59:24;3.50;;;1.35;;
21202;SDS011;10759;51.982;9.232;2022-12-29T11:01:56;2.90;;;0.90;;
21202;SDS011;10759;51.982;9.232;2022-12-29T11:04:40;3.90;;;1.10;;
21202;SDS011;10759;51.982;9.232;2022-12-29T11:07:19;2.22;;;1.02;;
21202;SDS011;10759;51.982;9.232;2022-12-29T11:09:52;4.03;;;1.15;;
21202;SDS011;10759;51.982;9.232;2022-12-29T11:12:22;4.03;;;1.40;;
21202;SDS011;10759;51.982;9.232;2022-12-29T11:15:10;4.65;;;1.48;;
21202;SDS011;10759;51.982;9.232;2022-12-29T11:17:44;4.75;;;2.38;;
21202;SDS011;10759;51.982;9.232;2022-12-29T11:20:31;5.28;;;2.97;;
21202;SDS011;10759;51.982;9.232;2022-12-29T11:23:01;3.40;;;1.58;;
21202;SDS011;10759;51.982;9.232;2022-12-29T11:25:30;2.55;;;1.25;;
21202;SDS011;10759;51.982;9.232;2022-12-29T11:28:00;4.40;;;1.63;;
21202;SDS011;10759;51.982;9.232;2022-12-29T11:30:32;7.00;;;2.00;;
21202;SDS011;10759;51.982;9.232;2022-12-29T11:33:02;6.30;;;2.30;;
21202;SDS011;10759;51.982;9.232;2022-12-29T11:35:32;3.10;;;1.92;;
21202;SDS011;10759;51.982;9.232;2022-12-29T11:38:06;4.75;;;1.80;;
21202;SDS011;10759;51.982;9.232;2022-12-29T11:40:49;5.00;;;1.45;;
21202;SDS011;10759;51.982;9.232;2022-12-29T11:43:18;2.92;;;1.50;;
21202;SDS011;10759;51.982;9.232;2022-12-29T11:45:52;2.55;;;1.23;;
21202;SDS011;10759;51.982;9.232;2022-12-29T11:48:23;3.40;;;1.50;;
21202;SDS011;10759;51.982;9.232;2022-12-29T11:51:00;5.53;;;2.25;;
21202;SDS011;10759;51.982;9.232;2022-12-29T11:53:29;5.82;;;2.17;;
21202;SDS011;10759;51.982;9.232;2022-12-29T11:56:06;4.00;;;2.63;;
21202;SDS011;10759;51.982;9.232;2022-12-29T11:58:38;4.50;;;1.20;;
21202;SDS011;10759;51.982;9.232;2022-12-29T12:01:10;5.13;;;1.55;;
21202;SDS011;10759;51.982;9.232;2022-12-29T12:03:44;3.63;;;1.70;;
21202;SDS011;10759;51.982;9.232;2022-12-29T12:06:19;4.18;;;1.40;;
21202;SDS011;10759;51.982;9.232;2022-12-29T12:08:52;2.80;;;1.65;;
21202;SDS011;10759;51.982;9.232;2022-12-29T12:11:24;2.88;;;1.90;;
21202;SDS011;10759;51.982;9.232;2022-12-29T12:14:04;4.55;;;2.17;;
21202;SDS011;10759;51.982;9.232;2022-12-29T12:17:04;2.33;;;1.50;;
21202;SDS011;10759;51.982;9.232;2022-12-29T12:19:38;5.03;;;1.88;;
21202;SDS011;10759;51.982;9.232;2022-12-29T12:22:12;3.33;;;1.50;;
21202;SDS011;10759;51.982;9.232;2022-12-29T12:24:46;2.88;;;1.50;;
21202;SDS011;10759;51.982;9.232;2022-12-29T12:27:18;3.97;;;2.03;;
21202;SDS011;10759;51.982;9.232;2022-12-29T12:29:52;4.35;;;2.13;;
21202;SDS011;10759;51.982;9.232;2022-12-29T12:32:29;4.70;;;1.92;;
21202;SDS011;10759;51.982;9.232;2022-12-29T12:35:11;6.72;;;1.73;;
21202;SDS011;10759;51.982;9.232;2022-12-29T12:37:59;4.20;;;1.65;;
21202;SDS011;10759;51.982;9.232;2022-12-29T12:40:51;4.63;;;1.65;;
21202;SDS011;10759;51.982;9.232;2022-12-29T12:43:36;5.57;;;1.58;;
21202;SDS011;10759;51.982;9.232;2022-12-29T12:46:12;8.13;;;3.40;;
21202;SDS011;10759;51.982;9.232;2022-12-29T12:48:58;4.07;;;1.50;;
21202;SDS011;10759;51.982;9.232;2022-12-29T12:52:00;4.65;;;2.10;;
21202;SDS011;10759;51.982;9.232;2022-12-29T12:54:37;3.88;;;1.45;;
21202;SDS011;10759;51.982;9.232;2022-12-29T12:57:17;5.28;;;1.40;;
21202;SDS011;10759;51.982;9.232;2022-12-29T12:59:56;3.55;;;1.38;;
21202;SDS011;10759;51.982;9.232;2022-12-29T13:02:34;3.13;;;1.60;;
21202;SDS011;10759;51.982;9.232;2022-12-29T13:11:17;5.70;;;1.60;;
21202;SDS011;10759;51.982;9.232;2022-12-29T13:13:59;3.58;;;1.52;;
21202;SDS011;10759;51.982;9.232;2022-12-29T13:16:40;3.80;;;1.70;;
21202;SDS011;10759;51.982;9.232;2022-12-29T13:19:17;3.75;;;1.73;;
21202;SDS011;10759;51.982;9.232;2022-12-29T13:22:04;4.03;;;1.58;;
21202;SDS011;10759;51.982;9.232;2022-12-29T13:24:40;6.18;;;2.65;;
21202;SDS011;10759;51.982;9.232;2022-12-29T13:27:20;2.90;;;1.30;;
21202;SDS011;10759;51.982;9.232;2022-12-29T13:30:02;4.00;;;1.92;;
21202;SDS011;10759;51.982;9.232;2022-12-29T13:32:35;5.18;;;1.60;;
21202;SDS011;10759;51.982;9.232;2022-12-29T13:35:17;3.38;;;1.50;;
21202;SDS011;10759;51.982;9.232;2022-12-29T13:38:00;6.28;;;1.98;;
21202;SDS011;10759;51.982;9.232;2022-12-29T13:40:32;8.65;;;4.68;;
21202;SDS011;10759;51.982;9.232;2022-12-29T13:43:06;7.55;;;2.78;;
21202;SDS011;10759;51.982;9.232;2022-12-29T13:45:35;5.00;;;1.83;;
21202;SDS011;10759;51.982;9.232;2022-12-29T13:48:05;5.32;;;2.28;;
21202;SDS011;10759;51.982;9.232;2022-12-29T13:50:39;5.35;;;1.80;;
21202;SDS011;10759;51.982;9.232;2022-12-29T13:53:11;2.75;;;1.50;;
21202;SDS011;10759;51.982;9.232;2022-12-29T13:55:48;2.88;;;1.55;;
21202;SDS011;10759;51.982;9.232;2022-12-29T13:58:24;3.53;;;1.35;;
21202;SDS011;10759;51.982;9.232;2022-12-29T14:00:58;2.78;;;1.38;;
21202;SDS011;10759;51.982;9.232;2022-12-29T14:03:45;5.60;;;2.55;;
21202;SDS011;10759;51.982;9.232;2022-12-29T14:06:19;7.35;;;1.90;;
21202;SDS011;10759;51.982;9.232;2022-12-29T14:08:52;3.03;;;1.88;;
21202;SDS011;10759;51.982;9.232;2022-12-29T14:11:24;3.40;;;1.20;;
21202;SDS011;10759;51.982;9.232;2022-12-29T14:13:58;3.95;;;1.55;;
21202;SDS011;10759;51.982;9.232;2022-12-29T14:16:38;3.13;;;1.60;;
21202;SDS011;10759;51.982;9.232;2022-12-29T14:19:11;6.35;;;1.80;;
21202;SDS011;10759;51.982;9.232;2022-12-29T14:21:49;6.30;;;1.88;;
21202;SDS011;10759;51.982;9.232;2022-12-29T14:24:32;5.05;;;1.55;;
21202;SDS011;10759;51.982;9.232;2022-12-29T14:33:15;6.07;;;1.95;;
21202;SDS011;10759;51.982;9.232;2022-12-29T14:35:44;5.40;;;2.50;;
21202;SDS011;10759;51.982;9.232;2022-12-29T14:38:17;4.57;;;2.33;;
21202;SDS011;10759;51.982;9.232;2022-12-29T14:40:49;5.50;;;1.80;;
21202;SDS011;10759;51.982;9.232;2022-12-29T14:43:22;3.22;;;1.40;;
21202;SDS011;10759;51.982;9.232;2022-12-29T14:45:54;4.38;;;1.90;;
21202;SDS011;10759;51.982;9.232;2022-12-29T14:51:18;9.90;;;4.90;;
21202;SDS011;10759;51.982;9.232;2022-12-29T14:53:52;5.10;;;1.90;;
21202;SDS011;10759;51.982;9.232;2022-12-29T14:56:23;7.15;;;1.60;;
21202;SDS011;10759;51.982;9.232;2022-12-29T14:58:54;4.82;;;1.52;;
21202;SDS011;10759;51.982;9.232;2022-12-29T15:04:03;7.35;;;1.30;;
21202;SDS011;10759;51.982;9.232;2022-12-29T15:06:41;5.75;;;2.78;;
21202;SDS011;10759;51.982;9.232;2022-12-29T15:09:14;4.07;;;2.00;;
21202;SDS011;10759;51.982;9.232;2022-12-29T15:11:52;9.98;;;2.88;;
21202;SDS011;10759;51.982;9.232;2022-12-29T15:14:31;11.30;;;8.55;;
21202;SDS011;10759;51.982;9.232;2022-12-29T15:17:02;7.22;;;5.03;;
21202;SDS011;10759;51.982;9.232;2022-12-29T15:19:37;4.82;;;2.20;;
21202;SDS011;10759;51.982;9.232;2022-12-29T15:22:05;7.93;;;5.72;;
21202;SDS011;10759;51.982;9.232;2022-12-29T15:24:40;7.35;;;4.68;;
21202;SDS011;10759;51.982;9.232;2022-12-29T15:27:12;7.93;;;3.17;;
21202;SDS011;10759;51.982;9.232;2022-12-29T15:29:43;9.75;;;7.63;;
21202;SDS011;10759;51.982;9.232;2022-12-29T15:32:17;4.03;;;1.90;;
21202;SDS011;10759;51.982;9.232;2022-12-29T15:34:48;5.43;;;3.63;;
21202;SDS011;10759;51.982;9.232;2022-12-29T15:39:46;7.50;;;1.88;;
21202;SDS011;10759;51.982;9.232;2022-12-29T15:42:19;11.15;;;6.28;;
21202;SDS011;10759;51.982;9.232;2022-12-29T15:44:57;5.53;;;2.85;;
21202;SDS011;10759;51.982;9.232;2022-12-29T15:47:36;5.43;;;1.70;;
21202;SDS011;10759;51.982;9.232;2022-12-29T15:50:06;6.10;;;1.58;;
21202;SDS011;10759;51.982;9.232;2022-12-29T15:52:41;5.80;;;2.13;;
21202;SDS011;10759;51.982;9.232;2022-12-29T15:55:16;4.97;;;3.50;;
21202;SDS011;10759;51.982;9.232;2022-12-29T15:57:49;10.23;;;5.80;;
21202;SDS011;10759;51.982;9.232;2022-12-29T16:00:24;8.20;;;3.10;;
21202;SDS011;10759;51.982;9.232;2022-12-29T16:02:55;3.78;;;1.40;;
21202;SDS011;10759;51.982;9.232;2022-12-29T16:07:59;4.93;;;1.77;;
21202;SDS011;10759;51.982;9.232;2022-12-29T16:10:29;5.80;;;2.40;;
21202;SDS011;10759;51.982;9.232;2022-12-29T16:13:05;4.35;;;2.13;;
21202;SDS011;10759;51.982;9.232;2022-12-29T16:15:45;9.50;;;3.35;;
21202;SDS011;10759;51.982;9.232;2022-12-29T16:18:16;4.93;;;1.92;;
21202;SDS011;10759;51.982;9.232;2022-12-29T16:20:51;7.55;;;2.30;;
21202;SDS011;10759;51.982;9.232;2022-12-29T16:23:22;3.63;;;1.75;;
21202;SDS011;10759;51.982;9.232;2022-12-29T16:25:52;6.35;;;2.15;;
21202;SDS011;10759;51.982;9.232;2022-12-29T16:28:26;4.90;;;2.03;;
21202;SDS011;10759;51.982;9.232;2022-12-29T16:31:02;5.47;;;2.05;;
21202;SDS011;10759;51.982;9.232;2022-12-29T16:33:45;3.78;;;2.70;;
21202;SDS011;10759;51.982;9.232;2022-12-29T16:36:28;7.93;;;3.95;;
21202;SDS011;10759;51.982;9.232;2022-12-29T16:39:07;3.90;;;2.50;;
21202;SDS011;10759;51.982;9.232;2022-12-29T16:41:52;5.18;;;2.38;;
21202;SDS011;10759;51.982;9.232;2022-12-29T16:44:23;6.45;;;3.10;;